Time;durP1;ratioP1;P1;durP2;ratioP2;P2;SDS_P1;SDS_P2;PMS_P1;PMS_P2;Temp;Humidity;BMP_temperature;BMP_pressure;BME280_temperature;BME280_humidity;BME280_pressure;Samples;Min_cycle;Max_cycle;Signal;HPM_P1;HPM_P2
2022/08/18 00:00:33;;;;;;;42.27;38.00;;;;;;;18.79;97.13;101200.75;4935177;29;20031;-83
2022/08/18 00:03:02;;;;;;;42.33;38.13;;;;;;;18.77;97.36;101208.13;4935323;29;20295;-84
2022/08/18 00:05:27;;;;;;;44.10;39.92;;;;;;;18.77;97.27;101211.66;4924714;29;20024;-85
2022/08/18 00:07:53;;;;;;;43.55;39.30;;;;;;;18.77;97.37;101213.50;4923828;29;20032;-84
2022/08/18 00:10:18;;;;;;;46.47;41.67;;;;;;;18.78;98.21;101223.25;4935331;29;20024;-85
2022/08/18 00:12:43;;;;;;;45.72;41.00;;;;;;;18.78;98.14;101224.09;4931529;29;20373;-84
2022/08/18 00:15:12;;;;;;;44.20;39.80;;;;;;;18.81;98.38;101225.63;4921910;29;20031;-85
2022/08/18 00:17:38;;;;;;;;;;;;;;;18.91;95.64;101225.53;4934774;29;20030;-86
2022/08/18 00:20:06;;;;;;;41.45;37.42;;;;;;;18.81;97.37;101225.63;4926008;29;19983;-86
2022/08/18 00:22:31;;;;;;;43.88;39.70;;;;;;;18.82;97.90;101224.63;4920846;29;20485;-85
2022/08/18 00:24:57;;;;;;;43.42;39.28;;;;;;;18.83;97.88;101220.97;4934057;29;20086;-85
2022/08/18 00:27:26;;;;;;;44.17;39.92;;;;;;;18.78;98.22;101226.78;4937886;29;20463;-85
2022/08/18 00:29:53;;;;;;;43.95;39.55;;;;;;;18.79;97.83;101239.25;4943546;29;20043;-85
2022/08/18 00:32:22;;;;;;;43.00;38.53;;;;;;;18.81;98.25;101239.94;4922597;29;20067;-85
2022/08/18 00:34:47;;;;;;;45.58;41.22;;;;;;;18.81;98.80;101233.72;4915296;29;20098;-85
2022/08/18 00:37:13;;;;;;;45.20;40.70;;;;;;;18.81;98.83;101231.00;4937074;29;20074;-85
2022/08/18 00:39:38;;;;;;;44.42;39.97;;;;;;;18.80;98.82;101227.50;4920167;29;20016;-85
2022/08/18 00:42:20;;;;;;;42.40;38.17;;;;;;;18.83;99.26;101243.31;4942102;29;20465;-85
2022/08/18 00:44:48;;;;;;;40.60;36.58;;;;;;;18.81;97.68;101248.00;4923827;29;20284;-85
2022/08/18 00:47:14;;;;;;;42.97;38.83;;;;;;;18.78;99.11;101248.31;4911146;29;20054;-85
2022/08/18 00:49:41;;;;;;;42.63;38.42;;;;;;;18.78;98.54;101247.47;4931921;29;20055;-85
2022/08/18 00:52:11;;;;;;;41.10;37.15;;;;;;;18.77;98.88;101248.47;4996268;23;20044;-79
2022/08/18 00:54:40;;;;;;;40.95;37.05;;;;;;;18.78;98.52;101242.09;4921310;29;20408;-79
2022/08/18 00:57:07;;;;;;;40.90;36.65;;;;;;;18.75;98.00;101234.34;4922637;29;20059;-79
2022/08/18 00:59:52;;;;;;;39.08;35.08;;;;;;;18.74;97.86;101236.19;4929239;29;20086;-79
2022/08/18 01:02:25;;;;;;;40.70;36.53;;;;;;;18.70;98.00;101234.00;4931126;29;20102;-78
2022/08/18 01:05:02;;;;;;;37.55;33.75;;;;;;;18.68;97.14;101226.94;4919555;29;20035;-79
2022/08/18 01:07:47;;;;;;;37.50;33.85;;;;;;;18.70;97.46;101245.59;4931539;29;20062;-79
2022/08/18 01:10:15;;;;;;;37.58;33.85;;;;;;;18.68;97.08;101239.53;4920203;29;20032;-79
2022/08/18 01:12:46;;;;;;;37.78;34.05;;;;;;;18.64;97.40;101224.72;4914937;29;20095;-79
2022/08/18 01:15:14;;;;;;;38.00;34.20;;;;;;;18.62;96.55;101221.38;4920321;29;20040;-79
2022/08/18 01:23:28;;;;;;;36.30;32.80;;;;;;;18.52;97.13;101232.25;4927906;29;20047;-79
2022/08/18 01:25:59;;;;;;;36.42;32.92;;;;;;;18.54;96.76;101224.00;4924592;29;20108;-79
2022/08/18 01:28:39;;;;;;;36.55;32.80;;;;;;;18.51;96.54;101225.16;4916534;29;20389;-79
2022/08/18 01:31:06;;;;;;;34.92;31.60;;;;;;;18.48;95.28;101229.03;4924504;29;20093;-79
2022/08/18 01:33:38;;;;;;;36.38;32.65;;;;;;;18.45;97.22;101231.16;4931152;29;20028;-79
2022/08/18 01:36:16;;;;;;;37.28;33.67;;;;;;;18.43;97.47;101225.13;4917600;29;20032;-79
2022/08/18 01:38:43;;;;;;;35.20;31.90;;;;;;;18.43;97.05;101231.34;4929441;29;20028;-79
2022/08/18 01:41:09;;;;;;;37.25;33.53;;;;;;;18.38;96.84;101224.75;4923731;29;20034;-79
2022/08/18 01:43:35;;;;;;;36.42;32.78;;;;;;;18.33;96.19;101232.47;4919982;29;20147;-79
2022/08/18 01:46:02;;;;;;;35.65;31.88;;;;;;;18.35;97.21;101219.69;4919246;29;20405;-79
2022/08/18 01:48:31;;;;;;;35.50;31.90;;;;;;;18.34;97.30;101223.41;4912122;29;20088;-79
2022/08/18 01:50:58;;;;;;;36.47;32.90;;;;;;;18.25;97.46;101226.03;4937365;29;20405;-79
2022/08/18 01:53:23;;;;;;;35.10;31.70;;;;;;;18.26;97.57;101230.41;4928049;29;20059;-79
2022/08/18 01:55:48;;;;;;;34.63;31.15;;;;;;;18.20;97.01;101216.75;4923988;29;20028;-79
2022/08/18 01:58:14;;;;;;;34.03;30.67;;;;;;;18.17;96.84;101220.59;4930658;29;20024;-79
2022/08/18 02:00:40;;;;;;;33.30;30.08;;;;;;;18.14;96.40;101218.22;4924697;29;20032;-79
2022/08/18 02:03:10;;;;;;;34.53;31.02;;;;;;;18.14;97.02;101222.78;4937931;29;20028;-79
2022/08/18 02:05:43;;;;;;;33.97;30.85;;;;;;;18.12;97.52;101220.25;4921003;29;20370;-79
2022/08/18 02:08:11;;;;;;;33.22;29.85;;;;;;;18.10;97.19;101211.47;4919333;29;20038;-79
2022/08/18 02:10:37;;;;;;;32.50;29.38;;;;;;;18.08;95.77;101213.47;4920784;29;20031;-79
2022/08/18 02:13:03;;;;;;;34.22;30.73;;;;;;;18.06;96.85;101215.50;4929412;29;20027;-79
2022/08/18 02:15:29;;;;;;;31.85;28.83;;;;;;;18.01;96.17;101213.25;4925565;29;20043;-79
2022/08/18 02:17:54;;;;;;;33.15;29.95;;;;;;;18.02;96.56;101219.47;4937794;29;20469;-79
2022/08/18 02:20:20;;;;;;;34.17;30.88;;;;;;;17.97;96.85;101213.72;4933090;29;20028;-79
2022/08/18 02:22:46;;;;;;;33.95;30.67;;;;;;;17.94;97.18;101223.81;4931016;29;20517;-79
2022/08/18 02:25:12;;;;;;;35.13;31.83;;;;;;;17.93;97.92;101224.78;4915368;29;20024;-79
2022/08/18 02:27:37;;;;;;;32.72;29.55;;;;;;;17.90;97.52;101227.81;4922807;29;20396;-79
2022/08/18 02:30:07;;;;;;;34.78;31.30;;;;;;;17.88;97.29;101227.09;4920515;29;20029;-79
2022/08/18 02:32:33;;;;;;;33.40;30.23;;;;;;;17.89;96.92;101226.13;4919494;29;20458;-79
2022/08/18 02:34:58;;;;;;;32.92;29.65;;;;;;;17.88;96.76;101227.09;4907063;29;20059;-79
2022/08/18 02:37:24;;;;;;;31.40;28.30;;;;;;;17.84;96.27;101227.56;4917988;29;20036;-79
2022/08/18 02:39:49;;;;;;;33.00;29.65;;;;;;;17.85;96.44;101234.59;4933967;29;20035;-78
2022/08/18 02:42:15;;;;;;;33.08;29.58;;;;;;;17.82;96.31;101235.78;4931489;29;20019;-79
2022/08/18 02:44:41;;;;;;;33.90;30.52;;;;;;;17.78;96.33;101234.38;4917989;29;20028;-79
2022/08/18 02:47:06;;;;;;;32.90;29.50;;;;;;;17.74;95.97;101238.41;4932002;29;20039;-79
2022/08/18 02:49:31;;;;;;;32.70;29.67;;;;;;;17.75;96.79;101242.75;4929480;29;20035;-79
2022/08/18 02:51:57;;;;;;;32.50;29.33;;;;;;;17.75;96.23;101242.75;4918168;29;20055;-79
2022/08/18 02:54:24;;;;;;;32.25;29.05;;;;;;;17.70;96.34;101242.38;4918635;29;20024;-79
2022/08/18 02:56:51;;;;;;;31.42;28.13;;;;;;;17.69;96.51;101238.84;4916445;29;20028;-79
2022/08/18 02:59:23;;;;;;;32.33;28.42;;;;;;;17.68;96.22;101233.63;4917482;29;20072;-78
2022/08/18 03:01:52;;;;;;;30.95;27.77;;;;;;;17.64;96.43;101225.03;4919975;29;20028;-79
2022/08/18 03:04:26;;;;;;;32.58;29.27;;;;;;;17.63;96.74;101227.88;4925249;29;20032;-79
2022/08/18 03:06:53;;;;;;;31.35;28.23;;;;;;;17.61;96.61;101228.03;4926999;29;20090;-80
2022/08/18 03:09:18;;;;;;;31.13;28.02;;;;;;;17.56;95.89;101225.81;4936331;29;20454;-80
2022/08/18 03:11:44;;;;;;;31.25;28.10;;;;;;;17.57;95.42;101232.03;4922381;29;20119;-80
2022/08/18 03:14:11;;;;;;;31.38;28.48;;;;;;;17.53;96.05;101233.34;4936665;29;20425;-79
2022/08/18 03:16:39;;;;;;;31.75;28.40;;;;;;;17.48;95.94;101235.63;4913871;29;20046;-79
2022/08/18 03:19:04;;;;;;;32.92;29.63;;;;;;;17.49;96.57;101235.47;4915614;29;20025;-79
2022/08/18 03:21:33;;;;;;;33.63;30.02;;;;;;;17.47;96.59;101236.63;4924969;29;20027;-79
2022/08/18 03:23:59;;;;;;;33.25;29.98;;;;;;;17.46;96.50;101243.84;4936600;29;20094;-79
2022/08/18 03:26:24;;;;;;;33.20;29.98;;;;;;;17.44;95.89;101250.38;4936459;29;20035;-79
2022/08/18 03:28:52;;;;;;;33.35;29.75;;;;;;;17.43;96.44;101251.38;4916993;29;20044;-79
2022/08/18 03:31:19;;;;;;;32.80;29.52;;;;;;;17.35;96.45;101244.06;4925289;29;20108;-79
2022/08/18 03:33:45;;;;;;;32.40;29.20;;;;;;;17.39;96.39;101259.72;4914919;29;20501;-79
2022/08/18 03:36:13;;;;;;;31.85;28.75;;;;;;;17.37;97.26;101250.97;4924533;29;20074;-80
2022/08/18 03:38:40;;;;;;;32.30;28.88;;;;;;;17.32;96.84;101253.28;4932229;29;20024;-80
2022/08/18 03:41:07;;;;;;;31.75;28.75;;;;;;;17.31;96.50;101256.94;4916059;29;20056;-80
2022/08/18 03:43:33;;;;;;;36.95;30.67;;;;;;;17.29;97.34;101250.06;4916901;29;20032;-80
2022/08/18 03:46:04;;;;;;;32.22;28.83;;;;;;;17.33;97.49;101259.47;4917099;29;20082;-80
2022/08/18 03:48:32;;;;;;;31.83;28.60;;;;;;;17.29;97.04;101250.88;4928469;29;20444;-80
2022/08/18 03:51:26;;;;;;;33.35;30.15;;;;;;;17.34;97.30;101256.66;4917016;29;20072;-80
2022/08/18 03:53:53;;;;;;;31.48;28.27;;;;;;;17.22;96.58;101259.69;4905326;29;20086;-79
2022/08/18 03:56:23;;;;;;;31.45;28.35;;;;;;;17.20;95.92;101258.03;4910935;29;20055;-80
2022/08/18 03:58:55;;;;;;;32.63;29.13;;;;;;;17.20;96.97;101257.16;4927367;29;20024;-79
2022/08/18 04:01:23;;;;;;;31.23;28.02;;;;;;;17.23;96.37;101259.53;4930052;29;20028;-79
2022/08/18 04:03:53;;;;;;;31.20;28.20;;;;;;;17.18;96.87;101249.25;4924783;29;20032;-80
2022/08/18 04:06:29;;;;;;;;;;;;;;;17.32;95.11;101257.78;4930051;29;20067;-79
2022/08/18 04:08:56;;;;;;;31.10;28.10;;;;;;;17.24;96.21;101258.56;4906584;29;19919;-79
2022/08/18 04:11:23;;;;;;;31.30;28.05;;;;;;;17.20;96.93;101255.34;4923875;29;20036;-79
2022/08/18 04:13:48;;;;;;;32.00;28.90;;;;;;;17.22;96.97;101248.94;4908307;29;20071;-79
2022/08/18 04:16:14;;;;;;;36.63;33.00;;;;;;;17.18;97.45;101245.72;4928636;29;20056;-80
2022/08/18 04:18:39;;;;;;;34.50;31.00;;;;;;;17.12;97.73;101243.63;4916966;29;20438;-79
2022/08/18 04:21:08;;;;;;;36.03;32.55;;;;;;;17.16;98.03;101256.63;4919986;29;20392;-79
2022/08/18 04:23:37;;;;;;;36.42;32.90;;;;;;;17.17;97.97;101252.13;4927579;29;20115;-80
2022/08/18 04:26:03;;;;;;;;;;;;;;;17.28;95.91;101249.19;4929307;29;20039;-79
2022/08/18 04:28:29;;;;;;;38.72;34.75;;;;;;;17.19;98.24;101258.16;4909247;29;19911;-79
2022/08/18 04:30:58;;;;;;;37.50;33.67;;;;;;;17.18;99.01;101251.94;4916401;29;20036;-79
2022/08/18 04:33:25;;;;;;;35.13;31.80;;;;;;;17.19;98.26;101250.94;4920050;29;20481;-79
2022/08/18 04:35:50;;;;;;;36.08;32.75;;;;;;;17.20;98.67;101254.47;4920203;29;20419;-79
2022/08/18 04:38:15;;;;;;;36.13;32.58;;;;;;;17.17;98.20;101249.44;4920899;29;20115;-79
2022/08/18 04:40:41;;;;;;;36.13;32.63;;;;;;;17.20;99.25;101257.16;4937862;29;20072;-79
2022/08/18 04:43:13;;;;;;;36.40;32.90;;;;;;;17.19;98.87;101258.16;4939450;29;20034;-80
2022/08/18 04:45:39;;;;;;;37.67;33.92;;;;;;;17.18;99.03;101259.16;4939650;29;20023;-79
2022/08/18 04:48:05;;;;;;;40.47;36.15;;;;;;;17.19;99.40;101260.84;4926564;29;20601;-79
2022/08/18 04:50:30;;;;;;;40.50;36.17;;;;;;;17.18;99.52;101265.34;4904901;29;20039;-80
2022/08/18 04:55:48;;;;;;;40.20;36.25;;;;;;;17.24;100.00;101265.78;4939963;29;20082;-80
2022/08/18 04:58:15;;;;;;;41.25;36.40;;;;;;;17.24;99.85;101277.34;4924133;29;20476;-79
2022/08/18 05:00:42;;;;;;;44.15;36.63;;;;;;;17.21;100.00;101272.28;4928775;29;20024;-80
2022/08/18 05:03:07;;;;;;;39.97;35.78;;;;;;;17.23;100.00;101272.97;4921574;29;20031;-80
2022/08/18 05:05:33;;;;;;;40.72;36.35;;;;;;;17.24;100.00;101266.59;4927665;29;20392;-80
2022/08/18 05:07:58;;;;;;;39.33;35.13;;;;;;;17.25;100.00;101267.44;4900917;29;20115;-80
2022/08/18 05:10:23;;;;;;;42.97;36.83;;;;;;;17.25;100.00;101272.81;4907248;29;20397;-79
2022/08/18 05:12:48;;;;;;;44.37;38.47;;;;;;;17.26;100.00;101275.34;4931943;29;20469;-79
2022/08/18 05:15:14;;;;;;;40.03;35.67;;;;;;;17.27;100.00;101279.75;4919768;29;20300;-79
2022/08/18 05:17:39;;;;;;;43.20;36.45;;;;;;;17.27;100.00;101290.47;4922446;29;20054;-79
2022/08/18 05:20:07;;;;;;;40.63;36.22;;;;;;;17.27;100.00;101284.25;4926571;29;20087;-79
2022/08/18 05:22:42;;;;;;;39.42;35.55;;;;;;;17.27;99.46;101295.84;4935145;29;20110;-79
2022/08/18 05:25:09;;;;;;;40.53;36.28;;;;;;;17.28;100.00;101292.16;4928323;29;20032;-79
2022/08/18 05:27:36;;;;;;;39.95;35.63;;;;;;;17.32;99.83;101279.25;4919455;29;20079;-79
2022/08/18 05:30:04;;;;;;;41.25;36.85;;;;;;;17.35;100.00;101284.34;4931366;29;20395;-79
2022/08/18 05:32:33;;;;;;;40.50;36.30;;;;;;;17.38;100.00;101274.13;4919355;29;20044;-80
2022/08/18 05:35:03;;;;;;;;;;;;;;;17.50;98.64;101280.16;4931515;29;20036;-82
2022/08/18 05:37:56;;;;;;;39.90;35.70;;;;;;;17.43;99.92;101275.53;4921983;29;19918;-81
2022/08/18 05:40:23;;;;;;;38.53;34.63;;;;;;;17.44;99.59;101294.19;4917872;29;20025;-81
2022/08/18 05:42:49;;;;;;;39.67;35.60;;;;;;;17.45;100.00;101293.16;4918678;29;20425;-81
2022/08/18 05:45:17;;;;;;;37.50;33.65;;;;;;;17.45;99.58;101297.69;4918956;29;20024;-80
2022/08/18 05:47:43;;;;;;;37.95;33.92;;;;;;;17.48;99.81;101292.03;4928996;29;20039;-80
2022/08/18 05:50:16;;;;;;;39.72;35.50;;;;;;;17.49;100.00;101291.03;4938226;29;20024;-80
2022/08/18 05:52:51;;;;;;;40.70;35.67;;;;;;;17.55;100.00;101302.03;4938213;29;20056;-80
2022/08/18 05:58:16;;;;;;;40.95;35.38;;;;;;;17.62;100.00;101299.56;4938310;29;20047;-80
2022/08/18 06:00:51;;;;;;;39.03;34.95;;;;;;;17.64;100.00;101302.94;4925509;29;20395;-80
2022/08/18 06:03:22;;;;;;;44.92;35.70;;;;;;;17.68;100.00;101298.09;4914674;29;20022;-81
2022/08/18 06:06:00;;;;;;;36.88;32.97;;;;;;;17.71;100.00;101295.94;4914140;29;20386;-81
2022/08/18 06:08:35;;;;;;;37.92;33.60;;;;;;;17.74;100.00;101302.88;4912873;29;20068;-81
2022/08/18 06:11:01;;;;;;;40.67;35.83;;;;;;;17.80;99.43;101302.25;4910059;29;20049;-81
2022/08/18 06:13:27;;;;;;;37.75;33.38;;;;;;;17.83;99.13;101299.25;4902823;29;20034;-81
2022/08/18 06:16:13;;;;;;;38.25;34.33;;;;;;;17.90;100.00;101291.44;4917500;29;20442;-81
2022/08/18 06:19:00;;;;;;;38.67;34.78;;;;;;;17.94;99.66;101296.38;4917589;29;20035;-80
2022/08/18 06:21:50;;;;;;;41.10;36.60;;;;;;;17.99;99.91;101295.91;4919929;29;20100;-81
2022/08/18 06:24:18;;;;;;;39.05;34.90;;;;;;;18.01;99.79;101299.28;4912522;29;20021;-80
2022/08/18 06:26:57;;;;;;;40.50;36.33;;;;;;;18.07;99.57;101295.97;4906330;29;20051;-80
2022/08/18 06:29:49;;;;;;;40.42;36.05;;;;;;;18.09;98.68;101301.19;4916062;29;20083;-81
2022/08/18 06:32:30;;;;;;;40.88;36.42;;;;;;;18.15;98.50;101315.84;4908608;29;20041;-80
2022/08/18 06:35:33;;;;;;;40.72;36.72;;;;;;;18.21;98.89;101317.91;4913886;29;20029;-77
2022/08/18 06:41:15;;;;;;;38.17;33.78;;;;;;;18.31;98.88;101324.03;4906892;29;20047;-80
2022/08/18 06:44:05;;;;;;;38.63;34.63;;;;;;;18.37;98.13;101319.88;4910580;29;20024;-79
2022/08/18 06:46:58;;;;;;;38.72;34.58;;;;;;;18.42;98.05;101321.09;4914447;29;20052;-79
2022/08/18 06:49:36;;;;;;;37.50;33.50;;;;;;;18.41;97.05;101321.25;4912824;29;20044;-80
2022/08/18 06:52:29;;;;;;;39.08;35.15;;;;;;;18.47;97.38;101326.84;4911276;29;20040;-80
2022/08/18 06:54:58;;;;;;;36.40;32.78;;;;;;;18.49;97.23;101329.38;4911119;29;20409;-80
2022/08/18 06:57:31;;;;;;;36.33;32.42;;;;;;;18.49;96.85;101324.84;4914629;29;20047;-79
2022/08/18 07:00:01;;;;;;;38.03;34.08;;;;;;;18.48;97.36;101325.00;4914444;29;20118;-79
2022/08/18 07:02:40;;;;;;;35.97;32.28;;;;;;;18.57;96.58;101317.81;4919634;29;20072;-79
2022/08/18 07:05:19;;;;;;;37.90;33.97;;;;;;;18.67;96.96;101324.78;4917700;29;20032;-79
2022/08/18 07:07:45;;;;;;;35.13;31.50;;;;;;;18.83;96.77;101331.31;4920465;29;20083;-79
2022/08/18 07:10:13;;;;;;;33.17;29.88;;;;;;;18.87;95.27;101332.69;4917040;29;20380;-78
2022/08/18 07:12:40;;;;;;;34.80;31.23;;;;;;;18.93;95.20;101326.63;4916720;29;20450;-79
2022/08/18 07:15:06;;;;;;;34.50;31.15;;;;;;;19.00;96.03;101332.22;4913828;29;20068;-79
2022/08/18 07:17:37;;;;;;;34.25;30.95;;;;;;;19.08;94.46;101326.88;4920547;29;20048;-79
2022/08/18 07:20:07;;;;;;;33.58;30.38;;;;;;;19.19;94.72;101321.22;4917666;29;20067;-79
2022/08/18 07:22:58;;;;;;;32.13;28.95;;;;;;;19.30;94.67;101328.16;4914213;29;20056;-79
2022/08/18 07:25:29;;;;;;;32.80;29.40;;;;;;;19.30;93.87;101321.91;4920114;29;20051;-79
2022/08/18 07:27:55;;;;;;;32.00;28.63;;;;;;;19.49;94.74;101339.66;4916858;29;20481;-79
2022/08/18 07:30:21;;;;;;;32.25;29.15;;;;;;;19.75;95.20;101336.88;4915746;29;20083;-79
2022/08/18 07:32:58;;;;;;;32.67;29.47;;;;;;;19.84;92.80;101335.88;4916618;29;20048;-79
2022/08/18 07:35:47;;;;;;;30.63;27.55;;;;;;;19.98;91.61;101330.84;4921026;29;20460;-76
2022/08/18 07:38:30;;;;;;;28.75;25.95;;;;;;;19.95;91.00;101318.53;4908666;29;20028;-79
2022/08/18 07:41:03;;;;;;;29.10;26.20;;;;;;;20.06;90.76;101317.38;4920524;29;20036;-79
2022/08/18 07:43:52;;;;;;;28.63;25.35;;;;;;;20.25;90.02;101326.97;4924681;29;20020;-78
2022/08/18 07:46:34;;;;;;;;;;;;;;;20.43;90.72;101335.72;4917434;29;20035;-78
2022/08/18 07:48:59;;;;;;;24.65;22.05;;;;;;;20.65;86.93;101341.44;4916884;29;19917;-79
2022/08/18 07:51:42;;;;;;;23.27;20.95;;;;;;;20.85;86.05;101339.19;4919758;29;20024;-78
2022/08/18 07:54:22;;;;;;;25.85;23.45;;;;;;;21.03;86.14;101333.56;4897810;29;20044;-79
2022/08/18 07:56:58;;;;;;;25.45;22.95;;;;;;;21.15;84.92;101325.94;4914345;29;20168;-78
2022/08/18 07:59:41;;;;;;;23.27;21.13;;;;;;;21.20;83.85;101331.66;4928932;29;20036;-78
2022/08/18 08:02:28;;;;;;;23.55;21.15;;;;;;;21.20;84.68;101335.22;4917375;29;20423;-78
2022/08/18 08:05:23;;;;;;;25.88;23.38;;;;;;;21.19;84.47;101335.38;4929589;29;20024;-78
2022/08/18 08:08:06;;;;;;;23.67;21.20;;;;;;;21.16;83.27;101328.47;4902060;29;20064;-77
2022/08/18 08:10:35;;;;;;;23.80;21.27;;;;;;;21.49;82.77;101339.13;4912344;29;20028;-78
2022/08/18 08:13:12;;;;;;;21.30;19.10;;;;;;;21.64;82.74;101333.81;4921032;29;20028;-78
2022/08/18 08:15:48;;;;;;;20.45;18.42;;;;;;;21.61;80.77;101329.59;4920898;29;20032;-78
2022/08/18 08:18:23;;;;;;;19.77;17.33;;;;;;;21.64;81.98;101331.13;4920298;29;20063;-78
2022/08/18 08:20:59;;;;;;;18.85;17.23;;;;;;;21.84;81.05;101331.47;4932927;29;20485;-78
2022/08/18 08:23:41;;;;;;;17.60;15.75;;;;;;;21.79;81.08;101337.44;4926533;29;20119;-79
2022/08/18 08:26:38;;;;;;;16.25;14.55;;;;;;;21.92;80.02;101336.00;4911286;29;20036;-78
2022/08/18 08:29:19;;;;;;;20.77;18.67;;;;;;;21.98;81.96;101344.25;4918669;29;20043;-78
2022/08/18 08:31:59;;;;;;;20.00;18.10;;;;;;;22.06;81.44;101345.19;4920333;29;20039;-78
2022/08/18 08:34:28;;;;;;;19.38;17.52;;;;;;;22.11;80.10;101345.47;4912269;29;20102;-78
2022/08/18 08:37:08;;;;;;;20.42;17.08;;;;;;;22.09;79.44;101336.72;4920566;29;20058;-78
2022/08/18 08:39:44;;;;;;;17.35;15.65;;;;;;;22.15;80.02;101346.81;4903801;29;20025;-78
2022/08/18 08:42:22;;;;;;;18.70;16.80;;;;;;;22.10;78.49;101344.66;4936477;29;20066;-78
2022/08/18 08:44:54;;;;;;;;;;;;;;;22.30;80.94;101341.44;4934502;29;20043;-78
2022/08/18 08:47:34;;;;;;;18.23;16.33;;;;;;;22.24;78.25;101353.00;4921871;29;19922;-78
2022/08/18 08:50:03;;;;;;;17.13;15.40;;;;;;;22.22;77.21;101353.19;4934662;29;20380;-80
2022/08/18 08:52:31;;;;;;;16.17;14.68;;;;;;;22.12;76.63;101358.00;4927150;29;20060;-78
2022/08/18 08:55:13;;;;;;;17.10;15.40;;;;;;;22.47;78.75;101358.41;4921698;29;20032;-79
2022/08/18 08:57:49;;;;;;;18.70;15.45;;;;;;;22.85;79.30;101352.94;4924899;29;20036;-79
2022/08/18 09:00:14;;;;;;;17.83;14.82;;;;;;;23.07;74.99;101351.19;4921751;29;20036;-79
2022/08/18 09:02:57;;;;;;;16.80;15.20;;;;;;;23.33;75.32;101345.28;4916921;29;20110;-78
2022/08/18 09:05:26;;;;;;;15.43;13.40;;;;;;;23.55;70.80;101342.59;4926738;29;20110;-81
2022/08/18 09:08:14;;;;;;;15.52;14.02;;;;;;;23.83;72.06;101351.72;4919954;29;20458;-79
2022/08/18 09:10:43;;;;;;;13.68;12.30;;;;;;;24.20;71.21;101347.03;4913661;29;20478;-79
2022/08/18 09:13:21;;;;;;;13.75;11.15;;;;;;;24.53;70.86;101351.03;4901671;29;20067;-79
2022/08/18 09:16:21;;;;;;;12.32;11.05;;;;;;;24.78;71.26;101356.91;4918648;29;20063;-79
2022/08/18 09:19:13;;;;;;;11.07;9.98;;;;;;;24.88;68.01;101353.81;4918637;29;20380;-79
2022/08/18 09:21:52;;;;;;;9.60;8.70;;;;;;;25.16;66.03;101348.31;4923862;29;20508;-79
2022/08/18 09:24:39;;;;;;;13.25;8.57;;;;;;;25.51;66.81;101352.88;4937111;29;20126;-79
2022/08/18 09:27:14;;;;;;;10.43;8.63;;;;;;;25.57;64.70;101352.06;4935000;29;20043;-79
2022/08/18 09:29:53;;;;;;;10.35;8.63;;;;;;;25.52;67.91;101355.41;4934519;29;20031;-79
2022/08/18 09:32:18;;;;;;;14.10;12.20;;;;;;;25.24;65.16;101345.44;4936265;29;20020;-79
2022/08/18 09:34:50;;;;;;;12.57;11.33;;;;;;;25.23;63.59;101341.06;4920008;29;20457;-78
2022/08/18 09:37:24;;;;;;;12.40;11.07;;;;;;;25.12;65.19;101339.72;4935820;29;20038;-79
2022/08/18 09:43:12;;;;;;;10.10;9.10;;;;;;;25.00;65.67;101345.97;4900800;29;20071;-79
2022/08/18 09:45:52;;;;;;;12.07;10.93;;;;;;;25.04;65.50;101349.94;4926478;29;20031;-79
2022/08/18 09:48:38;;;;;;;11.00;9.98;;;;;;;25.05;66.98;101335.31;4928040;29;20051;-78
2022/08/18 09:51:17;;;;;;;10.50;9.43;;;;;;;25.01;65.20;101343.03;4919119;29;20043;-79
2022/08/18 09:53:45;;;;;;;11.25;10.10;;;;;;;24.75;65.49;101338.28;4918197;29;20050;-78
2022/08/18 09:56:15;;;;;;;10.00;9.00;;;;;;;24.78;65.02;101332.47;4918792;29;20050;-78
2022/08/18 09:58:53;;;;;;;12.65;9.05;;;;;;;24.81;66.53;101332.03;4925696;29;20615;-78
2022/08/18 10:01:33;;;;;;;10.57;8.70;;;;;;;24.71;64.35;101342.44;4913100;29;20430;-79
2022/08/18 10:04:13;;;;;;;11.77;8.82;;;;;;;24.78;66.37;101340.63;4915224;29;20032;-79
2022/08/18 10:06:41;;;;;;;8.80;7.90;;;;;;;24.69;62.79;101339.91;4906799;29;20051;-79
2022/08/18 10:09:20;;;;;;;11.35;8.07;;;;;;;24.68;64.72;101337.38;4914827;29;20080;-78
2022/08/18 10:12:08;;;;;;;9.63;8.25;;;;;;;24.80;64.71;101332.25;4913978;29;20083;-78
2022/08/18 10:14:50;;;;;;;10.02;8.55;;;;;;;25.11;64.96;101335.34;4928225;29;20076;-78
2022/08/18 10:17:45;;;;;;;9.57;8.27;;;;;;;25.51;62.54;101328.41;4918921;29;20032;-78
2022/08/18 10:20:46;;;;;;;10.48;7.68;;;;;;;25.69;63.86;101325.13;4918633;29;20064;-77
2022/08/18 10:23:51;;;;;;;9.00;7.90;;;;;;;25.77;62.59;101328.47;4916267;29;20062;-78
2022/08/18 10:26:32;;;;;;;10.85;8.38;;;;;;;25.81;62.29;101324.31;4913200;29;20417;-79
2022/08/18 10:29:08;;;;;;;9.20;7.85;;;;;;;25.73;61.53;101327.22;4914638;29;20037;-79
2022/08/18 10:32:07;;;;;;;9.23;7.57;;;;;;;25.93;62.25;101321.81;4917335;29;20091;-76
2022/08/18 10:34:35;;;;;;;9.45;7.50;;;;;;;25.78;60.04;101315.69;4910140;29;20063;-78
2022/08/18 10:37:10;;;;;;;8.85;7.10;;;;;;;25.73;61.24;101318.19;4924889;29;20028;-77
2022/08/18 10:39:38;;;;;;;9.20;7.18;;;;;;;25.70;60.51;101322.19;4913644;29;20071;-77
2022/08/18 10:42:09;;;;;;;12.33;7.53;;;;;;;25.61;61.69;101320.69;4913014;29;20036;-77
2022/08/18 10:44:42;;;;;;;7.28;6.22;;;;;;;25.53;61.71;101321.75;4917636;29;20055;-79
2022/08/18 10:47:19;;;;;;;7.35;6.65;;;;;;;25.40;61.23;101318.97;4915844;29;20043;-80
2022/08/18 10:49:48;;;;;;;6.45;5.93;;;;;;;25.40;60.84;101310.81;4916133;29;20060;-78
2022/08/18 10:52:13;;;;;;;;;;;;;;;25.74;62.95;101325.31;4921471;29;20058;-77
2022/08/18 10:54:53;;;;;;;7.07;5.57;;;;;;;25.64;59.75;101328.44;4921944;29;20334;-78
2022/08/18 10:57:37;;;;;;;7.50;6.25;;;;;;;25.47;60.13;101319.81;4916756;29;20036;-78
2022/08/18 11:00:16;;;;;;;6.72;6.10;;;;;;;25.49;58.54;101323.16;4922818;29;20047;-78
2022/08/18 11:03:01;;;;;;;;;;;;;;;25.76;62.09;101323.22;4911622;29;20037;-78
2022/08/18 11:05:27;;;;;;;7.03;5.93;;;;;;;25.40;60.82;101317.09;4908252;29;19921;-78
2022/08/18 11:07:58;;;;;;;6.38;5.78;;;;;;;25.41;62.45;101326.06;4905926;29;20529;-78
2022/08/18 11:10:38;;;;;;;7.00;6.28;;;;;;;25.47;59.85;101322.53;4902459;29;20067;-78
2022/08/18 11:13:20;;;;;;;7.07;6.38;;;;;;;25.22;60.64;101312.19;4906666;29;20032;-78
2022/08/18 11:16:23;;;;;;;7.10;6.50;;;;;;;25.69;61.41;101309.63;4916696;29;20040;-78
2022/08/18 11:18:57;;;;;;;7.35;6.40;;;;;;;26.07;60.70;101302.78;4900348;29;20069;-78
2022/08/18 11:21:36;;;;;;;10.30;7.35;;;;;;;26.23;58.49;101296.94;4916524;29;20516;-78
2022/08/18 11:24:19;;;;;;;8.00;7.30;;;;;;;26.30;56.88;101296.91;4935548;29;20481;-77
2022/08/18 11:27:03;;;;;;;7.47;6.80;;;;;;;26.24;56.20;101287.69;4916996;29;20076;-77
2022/08/18 11:29:30;;;;;;;6.80;6.18;;;;;;;26.53;58.10;101283.69;4946736;29;20047;-79
2022/08/18 11:32:01;;;;;;;8.23;6.78;;;;;;;26.64;55.72;101276.75;4926554;29;20088;-77
2022/08/18 11:34:30;;;;;;;8.52;7.32;;;;;;;26.73;54.84;101280.94;4931423;29;20039;-78
2022/08/18 11:37:02;;;;;;;7.40;6.03;;;;;;;26.72;55.41;101273.78;4921808;29;20056;-78
2022/08/18 11:39:28;;;;;;;7.80;6.45;;;;;;;26.97;54.36;101280.44;4924761;29;20425;-77
2022/08/18 11:41:56;;;;;;;7.47;6.50;;;;;;;26.96;52.39;101271.41;4916221;29;20060;-77
2022/08/18 11:44:24;;;;;;;7.18;6.47;;;;;;;27.25;53.68;101267.28;4924756;29;20434;-77
2022/08/18 11:46:55;;;;;;;6.85;6.18;;;;;;;27.49;51.64;101270.31;4931463;29;20048;-76
2022/08/18 11:49:31;;;;;;;7.38;6.13;;;;;;;27.44;54.36;101265.50;4921950;29;20576;-77
2022/08/18 11:52:01;;;;;;;8.65;6.05;;;;;;;27.38;52.73;101260.94;4908820;29;20036;-77
2022/08/18 11:54:39;;;;;;;8.85;6.05;;;;;;;27.33;52.67;101258.06;4922787;29;20485;-77
2022/08/18 11:57:56;;;;;;;7.07;5.40;;;;;;;27.39;54.03;101254.44;4931425;29;20592;-77